Time,TemperatureF,DewpointF,PressureIn,WindDirection,WindDirectionDegrees,WindSpeedMPH,WindSpeedGustMPH,Humidity,HourlyPrecipIn,Conditions,Clouds,dailyrainin,SoftwareType,DateUTC
2013-08-20 00:26:00,57.7,54.2,29.88,WNW,299,0.0,1.0,88,0.00,,,0.00,Wunderground v.1.15,2013-08-20 07:26:00,
2013-08-20 00:56:00,57.7,54.2,29.87,WNW,299,0.0,2.0,88,0.00,,,0.00,Wunderground v.1.15,2013-08-20 07:56:00,
2013-08-20 01:26:00,57.7,54.2,29.86,WNW,295,3.0,5.0,88,0.00,,,0.00,Wunderground v.1.15,2013-08-20 08:26:00,
2013-08-20 01:56:00,57.7,54.2,29.86,NNW,336,1.0,6.0,88,0.00,,,0.00,Wunderground v.1.15,2013-08-20 08:56:00,
2013-08-20 02:26:00,57.8,54.3,29.84,NNW,347,2.0,2.0,88,0.00,,,0.00,Wunderground v.1.15,2013-08-20 09:26:00,
2013-08-20 02:56:00,57.7,54.2,29.84,WNW,302,2.0,7.0,88,0.00,,,0.00,Wunderground v.1.15,2013-08-20 09:56:00,
2013-08-20 03:26:00,57.2,54.0,29.84,NW,313,3.0,8.0,89,0.00,,,0.00,Wunderground v.1.15,2013-08-20 10:26:00,
2013-08-20 03:56:00,56.7,54.1,29.83,WNW,292,3.0,8.0,91,0.00,,,0.00,Wunderground v.1.15,2013-08-20 10:56:00,
2013-08-20 04:26:00,56.4,54.1,29.83,NW,325,3.0,6.0,92,0.00,,,0.00,Wunderground v.1.15,2013-08-20 11:26:00,
2013-08-20 04:56:00,56.4,54.4,29.84,WNW,300,1.0,5.0,93,0.00,,,0.00,Wunderground v.1.15,2013-08-20 11:56:00,
2013-08-20 05:26:00,56.1,54.1,29.84,WNW,290,1.0,1.0,93,0.00,,,0.00,Wunderground v.1.15,2013-08-20 12:26:00,
2013-08-20 05:57:00,55.9,53.9,29.85,WNW,290,0.0,2.0,93,0.00,,,0.00,Wunderground v.1.15,2013-08-20 12:57:00,
2013-08-20 06:27:00,55.8,53.8,29.85,WNW,290,0.0,2.0,93,0.00,,,0.00,Wunderground v.1.15,2013-08-20 13:27:00,
2013-08-20 06:56:00,56.0,54.3,29.87,WNW,290,2.0,4.0,94,0.00,,,0.00,Wunderground v.1.15,2013-08-20 13:56:00,
2013-08-20 07:27:00,56.6,54.3,29.87,WNW,289,2.0,5.0,92,0.00,,,0.00,Wunderground v.1.15,2013-08-20 14:27:00,
2013-08-20 07:56:00,57.1,54.5,29.88,WNW,290,2.0,2.0,91,0.00,,,0.00,Wunderground v.1.15,2013-08-20 14:56:00,
2013-08-20 08:27:00,58.6,55.1,29.88,NW,313,1.0,3.0,88,0.00,,,0.00,Wunderground v.1.15,2013-08-20 15:27:00,
2013-08-20 08:56:00,59.7,55.2,29.88,WNW,294,3.0,3.0,85,0.00,,,0.00,Wunderground v.1.15,2013-08-20 15:56:00,
2013-08-20 09:26:00,61.1,55.6,29.88,WNW,283,2.0,6.0,82,0.00,,,0.00,Wunderground v.1.15,2013-08-20 16:26:00,
2013-08-20 09:56:00,63.7,56.7,29.88,SSW,208,1.0,5.0,78,0.00,,,0.00,Wunderground v.1.15,2013-08-20 16:56:00,
2013-08-20 10:26:00,65.8,57.3,29.89,SE,130,2.0,6.0,74,0.00,,,0.00,Wunderground v.1.15,2013-08-20 17:26:00,
2013-08-20 10:56:00,67.9,57.8,29.88,West,276,1.0,6.0,70,0.00,,,0.00,Wunderground v.1.15,2013-08-20 17:56:00,
2013-08-20 11:26:00,68.0,57.8,29.88,WNW,282,4.0,7.0,70,0.00,,,0.00,Wunderground v.1.15,2013-08-20 18:26:00,
2013-08-20 11:56:00,71.6,57.4,29.88,West,259,2.0,6.0,61,0.00,,,0.00,Wunderground v.1.15,2013-08-20 18:56:00,
2013-08-20 12:26:00,70.4,56.8,29.87,WNW,284,9.0,9.0,62,0.00,,,0.00,Wunderground v.1.15,2013-08-20 19:26:00,
2013-08-20 12:56:00,71.1,57.0,29.86,WNW,298,8.0,8.0,61,0.00,,,0.00,Wunderground v.1.15,2013-08-20 19:56:00,
2013-08-20 13:26:00,73.1,57.4,29.86,WNW,288,7.0,14.0,58,0.00,,,0.00,Wunderground v.1.15,2013-08-20 20:26:00,
2013-08-20 13:56:00,74.6,57.4,29.85,West,281,6.0,11.0,55,0.00,,,0.00,Wunderground v.1.15,2013-08-20 20:56:00,
2013-08-20 14:27:00,77.3,58.3,29.84,WSW,252,3.0,8.0,52,0.00,,,0.00,Wunderground v.1.15,2013-08-20 21:27:00,
2013-08-20 14:56:00,79.5,58.1,29.83,West,281,4.0,7.0,48,0.00,,,0.00,Wunderground v.1.15,2013-08-20 21:56:00,
2013-08-20 15:26:00,79.6,55.8,29.81,WNW,284,8.0,15.0,44,0.00,,,0.00,Wunderground v.1.15,2013-08-20 22:26:00,
2013-08-20 15:56:00,79.3,55.5,29.80,WNW,298,9.0,16.0,44,0.00,,,0.00,Wunderground v.1.15,2013-08-20 22:56:00,
2013-08-20 16:26:00,76.4,55.8,29.80,WNW,300,10.0,17.0,49,0.00,,,0.00,Wunderground v.1.15,2013-08-20 23:26:00,
2013-08-20 16:56:00,74.0,55.8,29.79,West,280,11.0,18.0,53,0.00,,,0.00,Wunderground v.1.15,2013-08-20 23:56:00,
2013-08-20 17:26:00,70.4,55.8,29.80,WNW,301,11.0,11.0,60,0.00,,,0.00,Wunderground v.1.15,2013-08-21 00:26:00,
2013-08-20 17:56:00,67.4,54.8,29.81,WNW,288,12.0,18.0,64,0.00,,,0.00,Wunderground v.1.15,2013-08-21 00:56:00,
2013-08-20 18:26:00,65.9,54.2,29.82,WNW,299,9.0,9.0,66,0.00,,,0.00,Wunderground v.1.15,2013-08-21 01:26:00,
2013-08-20 18:56:00,64.3,54.3,29.82,WNW,295,6.0,14.0,70,0.00,,,0.00,Wunderground v.1.15,2013-08-21 01:56:00,
2013-08-20 19:27:00,61.6,54.0,29.84,NW,317,6.0,6.0,76,0.00,,,0.00,Wunderground v.1.15,2013-08-21 02:27:00,
2013-08-20 19:56:00,59.0,53.8,29.85,NW,323,6.0,6.0,83,0.00,,,0.00,Wunderground v.1.15,2013-08-21 02:56:00,
2013-08-20 20:26:00,57.8,53.6,29.87,NNW,332,5.0,5.0,86,0.00,,,0.00,Wunderground v.1.15,2013-08-21 03:26:00,
2013-08-20 20:56:00,57.2,53.7,29.88,NW,305,3.0,9.0,88,0.00,,,0.00,Wunderground v.1.15,2013-08-21 03:56:00,
2013-08-20 21:26:00,56.9,53.4,29.89,NW,308,4.0,14.0,88,0.00,,,0.00,Wunderground v.1.15,2013-08-21 04:26:00,
2013-08-20 21:56:00,56.8,53.6,29.89,NW,305,3.0,7.0,89,0.00,,,0.00,Wunderground v.1.15,2013-08-21 04:56:00,
2013-08-20 22:26:00,56.7,53.5,29.89,WNW,301,3.0,3.0,89,0.00,,,0.00,Wunderground v.1.15,2013-08-21 05:26:00,
2013-08-20 22:56:00,55.9,52.7,29.89,WNW,300,3.0,9.0,89,0.00,,,0.00,Wunderground v.1.15,2013-08-21 05:56:00,
2013-08-20 23:26:00,55.5,52.6,29.88,NW,306,3.0,8.0,90,0.00,,,0.00,Wunderground v.1.15,2013-08-21 06:26:00,
2013-08-20 23:56:00,55.3,52.4,29.89,NW,317,1.0,1.0,90,0.00,,,0.00,Wunderground v.1.15,2013-08-21 06:56:00,